sensor_id;sensor_type;location;lat;lon;timestamp;pressure;altitude;pressure_sealevel;temperature;humidity
16580;BME280;8402;51.466;6.806;2023-04-19T00:00:17;102375.16;;;12.64;74.20
16580;BME280;8402;51.466;6.806;2023-04-19T00:02:47;102365.88;;;12.65;73.95
16580;BME280;8402;51.466;6.806;2023-04-19T00:05:18;102369.16;;;12.62;74.23
16580;BME280;8402;51.466;6.806;2023-04-19T00:07:50;102368.63;;;12.60;74.38
16580;BME280;8402;51.466;6.806;2023-04-19T00:10:20;102360.16;;;12.62;74.18
16580;BME280;8402;51.466;6.806;2023-04-19T00:12:50;102373.22;;;12.65;74.48
16580;BME280;8402;51.466;6.806;2023-04-19T00:15:23;102361.75;;;12.68;74.47
16580;BME280;8402;51.466;6.806;2023-04-19T00:17:53;102366.03;;;12.74;74.37
16580;BME280;8402;51.466;6.806;2023-04-19T00:20:23;102364.34;;;12.78;74.53
16580;BME280;8402;51.466;6.806;2023-04-19T00:22:53;102363.78;;;12.81;74.72
16580;BME280;8402;51.466;6.806;2023-04-19T00:25:24;102361.28;;;12.85;74.50
16580;BME280;8402;51.466;6.806;2023-04-19T00:27:56;102371.38;;;12.84;74.56
16580;BME280;8402;51.466;6.806;2023-04-19T00:30:29;102363.19;;;12.84;75.02
16580;BME280;8402;51.466;6.806;2023-04-19T00:32:59;102370.25;;;12.85;75.50
16580;BME280;8402;51.466;6.806;2023-04-19T00:35:29;102363.75;;;12.86;75.31
16580;BME280;8402;51.466;6.806;2023-04-19T00:37:59;102360.72;;;12.88;75.62
16580;BME280;8402;51.466;6.806;2023-04-19T00:40:30;102356.03;;;12.93;75.49
16580;BME280;8402;51.466;6.806;2023-04-19T00:43:00;102354.94;;;12.94;75.61
16580;BME280;8402;51.466;6.806;2023-04-19T00:45:34;102359.78;;;12.98;75.49
16580;BME280;8402;51.466;6.806;2023-04-19T00:48:04;102350.50;;;12.99;75.67
16580;BME280;8402;51.466;6.806;2023-04-19T00:50:34;102350.50;;;12.99;75.76
16580;BME280;8402;51.466;6.806;2023-04-19T00:53:06;102355.38;;;13.02;75.70
16580;BME280;8402;51.466;6.806;2023-04-19T00:55:37;102350.97;;;13.06;75.54
16580;BME280;8402;51.466;6.806;2023-04-19T00:58:08;102350.41;;;13.09;75.58
16580;BME280;8402;51.466;6.806;2023-04-19T01:00:41;102342.22;;;13.09;75.92
16580;BME280;8402;51.466;6.806;2023-04-19T01:03:11;102344.94;;;13.09;75.67
16580;BME280;8402;51.466;6.806;2023-04-19T01:05:42;102348.78;;;13.08;75.98
16580;BME280;8402;51.466;6.806;2023-04-19T01:08:13;102340.88;;;13.06;76.03
16580;BME280;8402;51.466;6.806;2023-04-19T01:10:43;102339.53;;;13.04;76.10
16580;BME280;8402;51.466;6.806;2023-04-19T01:13:12;102343.38;;;13.03;76.17
16580;BME280;8402;51.466;6.806;2023-04-19T01:15:45;102340.66;;;13.03;76.33
16580;BME280;8402;51.466;6.806;2023-04-19T01:18:15;102337.94;;;13.03;76.27
16580;BME280;8402;51.466;6.806;2023-04-19T01:20:45;102333.59;;;13.02;76.42
16580;BME280;8402;51.466;6.806;2023-04-19T01:23:18;102336.31;;;13.02;76.19
16580;BME280;8402;51.466;6.806;2023-04-19T01:25:48;102332.22;;;12.99;76.51
16580;BME280;8402;51.466;6.806;2023-04-19T01:28:18;102330.31;;;13.00;76.40
16580;BME280;8402;51.466;6.806;2023-04-19T01:30:48;102323.84;;;12.95;76.50
16580;BME280;8402;51.466;6.806;2023-04-19T01:33:20;102331.22;;;12.95;76.63
16580;BME280;8402;51.466;6.806;2023-04-19T01:35:50;102328.50;;;12.95;76.53
16580;BME280;8402;51.466;6.806;2023-04-19T01:38:23;102330.91;;;12.97;76.59
16580;BME280;8402;51.466;6.806;2023-04-19T01:40:53;102324.41;;;12.92;76.98
16580;BME280;8402;51.466;6.806;2023-04-19T01:43:23;102326.63;;;12.90;76.87
16580;BME280;8402;51.466;6.806;2023-04-19T01:45:53;102326.94;;;12.89;76.88
16580;BME280;8402;51.466;6.806;2023-04-19T01:48:23;102323.38;;;12.88;76.73
16580;BME280;8402;51.466;6.806;2023-04-19T01:50:53;102325.59;;;12.86;76.94
16580;BME280;8402;51.466;6.806;2023-04-19T01:53:26;102324.53;;;12.82;77.80
16580;BME280;8402;51.466;6.806;2023-04-19T01:55:56;102323.44;;;12.83;76.95
16580;BME280;8402;51.466;6.806;2023-04-19T01:58:26;102326.75;;;12.80;76.90
16580;BME280;8402;51.466;6.806;2023-04-19T02:00:56;102328.94;;;12.78;76.94
16580;BME280;8402;51.466;6.806;2023-04-19T02:03:26;102320.78;;;12.78;76.87
16580;BME280;8402;51.466;6.806;2023-04-19T02:05:56;102315.31;;;12.78;76.54
16580;BME280;8402;51.466;6.806;2023-04-19T02:08:30;102316.44;;;12.77;76.43
16580;BME280;8402;51.466;6.806;2023-04-19T02:11:03;102312.09;;;12.76;76.70
16580;BME280;8402;51.466;6.806;2023-04-19T02:13:34;102307.75;;;12.75;76.54
16580;BME280;8402;51.466;6.806;2023-04-19T02:16:05;102306.13;;;12.74;76.53
16580;BME280;8402;51.466;6.806;2023-04-19T02:18:36;102300.16;;;12.72;76.33
16580;BME280;8402;51.466;6.806;2023-04-19T02:21:07;102300.44;;;12.71;76.52
16580;BME280;8402;51.466;6.806;2023-04-19T02:23:40;102301.38;;;12.61;77.54
16580;BME280;8402;51.466;6.806;2023-04-19T02:26:10;102302.19;;;12.61;77.02
16580;BME280;8402;51.466;6.806;2023-04-19T02:28:40;102298.13;;;12.59;77.18
16580;BME280;8402;51.466;6.806;2023-04-19T02:31:10;102310.19;;;12.53;77.23
16580;BME280;8402;51.466;6.806;2023-04-19T02:33:40;102308.56;;;12.52;77.16
16580;BME280;8402;51.466;6.806;2023-04-19T02:36:15;102311.84;;;12.49;77.44
16580;BME280;8402;51.466;6.806;2023-04-19T02:38:48;102309.72;;;12.46;77.73
16580;BME280;8402;51.466;6.806;2023-04-19T02:41:19;102309.72;;;12.46;77.54
16580;BME280;8402;51.466;6.806;2023-04-19T02:43:49;102304.56;;;12.44;77.64
16580;BME280;8402;51.466;6.806;2023-04-19T02:46:19;102311.09;;;12.43;77.74
16580;BME280;8402;51.466;6.806;2023-04-19T02:48:49;102310.25;;;12.43;77.85
16580;BME280;8402;51.466;6.806;2023-04-19T02:51:19;102311.91;;;12.44;77.74
16580;BME280;8402;51.466;6.806;2023-04-19T02:53:52;102307.28;;;12.44;77.57
16580;BME280;8402;51.466;6.806;2023-04-19T02:56:22;102313.00;;;12.43;77.49
16580;BME280;8402;51.466;6.806;2023-04-19T02:58:52;102309.47;;;12.42;77.75
16580;BME280;8402;51.466;6.806;2023-04-19T03:01:23;102297.28;;;12.34;78.18
16580;BME280;8402;51.466;6.806;2023-04-19T03:03:53;102302.97;;;12.38;77.59
16580;BME280;8402;51.466;6.806;2023-04-19T03:06:23;102309.53;;;12.37;78.09
16580;BME280;8402;51.466;6.806;2023-04-19T03:08:56;102302.72;;;12.34;78.33
16580;BME280;8402;51.466;6.806;2023-04-19T03:11:26;102308.66;;;12.42;77.44
16580;BME280;8402;51.466;6.806;2023-04-19T03:13:56;102294.19;;;12.46;77.60
16580;BME280;8402;51.466;6.806;2023-04-19T03:16:26;102298.81;;;12.46;77.08
16580;BME280;8402;51.466;6.806;2023-04-19T03:18:56;102291.16;;;12.48;77.55
16580;BME280;8402;51.466;6.806;2023-04-19T03:21:26;102291.97;;;12.48;77.37
16580;BME280;8402;51.466;6.806;2023-04-19T03:23:59;102296.06;;;12.51;77.35
16580;BME280;8402;51.466;6.806;2023-04-19T03:26:29;102285.16;;;12.51;77.22
16580;BME280;8402;51.466;6.806;2023-04-19T03:28:59;102288.97;;;12.50;77.00
16580;BME280;8402;51.466;6.806;2023-04-19T03:31:30;102283.25;;;12.51;77.01
16580;BME280;8402;51.466;6.806;2023-04-19T03:34:00;102290.00;;;12.54;76.80
16580;BME280;8402;51.466;6.806;2023-04-19T03:36:30;102288.41;;;12.53;76.84
16580;BME280;8402;51.466;6.806;2023-04-19T03:39:04;102283.75;;;12.53;76.90
16580;BME280;8402;51.466;6.806;2023-04-19T03:41:34;102297.06;;;12.55;76.66
16580;BME280;8402;51.466;6.806;2023-04-19T03:44:04;102298.94;;;12.59;76.66
16580;BME280;8402;51.466;6.806;2023-04-19T03:46:34;102298.69;;;12.56;76.02
16580;BME280;8402;51.466;6.806;2023-04-19T03:49:04;102286.13;;;12.60;76.24
16580;BME280;8402;51.466;6.806;2023-04-19T03:51:34;102286.66;;;12.62;76.12
16580;BME280;8402;51.466;6.806;2023-04-19T03:54:07;102286.09;;;12.65;75.82
16580;BME280;8402;51.466;6.806;2023-04-19T03:56:37;102283.94;;;12.62;75.45
16580;BME280;8402;51.466;6.806;2023-04-19T03:59:08;102282.25;;;12.66;75.12
16580;BME280;8402;51.466;6.806;2023-04-19T04:01:38;102287.16;;;12.64;74.65
16580;BME280;8402;51.466;6.806;2023-04-19T04:04:08;102279.00;;;12.64;74.58
16580;BME280;8402;51.466;6.806;2023-04-19T04:06:41;102294.00;;;12.61;74.42
16580;BME280;8402;51.466;6.806;2023-04-19T04:09:14;102290.00;;;12.54;73.85
16580;BME280;8402;51.466;6.806;2023-04-19T04:11:44;102285.16;;;12.51;73.83
16580;BME280;8402;51.466;6.806;2023-04-19T04:14:14;102292.78;;;12.49;74.03
16580;BME280;8402;51.466;6.806;2023-04-19T04:16:44;102297.19;;;12.45;73.22
16580;BME280;8402;51.466;6.806;2023-04-19T04:19:14;102299.97;;;12.39;73.61
16580;BME280;8402;51.466;6.806;2023-04-19T04:21:45;102294.53;;;12.39;73.92
16580;BME280;8402;51.466;6.806;2023-04-19T04:24:19;102300.56;;;12.36;73.33
16580;BME280;8402;51.466;6.806;2023-04-19T04:26:49;102303.84;;;12.33;73.43
16580;BME280;8402;51.466;6.806;2023-04-19T04:29:20;102300.63;;;12.26;72.91
16580;BME280;8402;51.466;6.806;2023-04-19T04:31:50;102302.88;;;12.19;72.52
16580;BME280;8402;51.466;6.806;2023-04-19T04:34:20;102310.00;;;12.15;72.43
16580;BME280;8402;51.466;6.806;2023-04-19T04:36:50;102305.13;;;12.12;72.59
16580;BME280;8402;51.466;6.806;2023-04-19T04:39:23;102303.00;;;12.09;72.44
16580;BME280;8402;51.466;6.806;2023-04-19T04:41:53;102306.84;;;12.03;72.11
16580;BME280;8402;51.466;6.806;2023-04-19T04:44:23;102303.63;;;12.01;72.00
16580;BME280;8402;51.466;6.806;2023-04-19T04:46:54;102304.16;;;11.98;72.11
16580;BME280;8402;51.466;6.806;2023-04-19T04:49:23;102302.03;;;11.95;72.03
16580;BME280;8402;51.466;6.806;2023-04-19T04:51:53;102302.06;;;11.90;71.96
16580;BME280;8402;51.466;6.806;2023-04-19T04:54:26;102300.44;;;11.89;72.39
16580;BME280;8402;51.466;6.806;2023-04-19T04:56:57;102301.53;;;11.88;72.29
16580;BME280;8402;51.466;6.806;2023-04-19T04:59:28;102301.00;;;11.85;72.33
16580;BME280;8402;51.466;6.806;2023-04-19T05:01:58;102301.56;;;11.82;72.09
16580;BME280;8402;51.466;6.806;2023-04-19T05:04:28;102295.88;;;11.79;72.29
16580;BME280;8402;51.466;6.806;2023-04-19T05:06:58;102299.16;;;11.71;72.25
16580;BME280;8402;51.466;6.806;2023-04-19T05:09:31;102310.44;;;11.59;72.17
16580;BME280;8402;51.466;6.806;2023-04-19T05:12:01;102313.13;;;11.59;72.67
16580;BME280;8402;51.466;6.806;2023-04-19T05:14:31;102310.44;;;11.54;72.43
16580;BME280;8402;51.466;6.806;2023-04-19T05:17:01;102308.81;;;11.53;72.74
16580;BME280;8402;51.466;6.806;2023-04-19T05:19:32;102311.56;;;11.48;72.60
16580;BME280;8402;51.466;6.806;2023-04-19T05:22:03;102318.91;;;11.47;72.70
16580;BME280;8402;51.466;6.806;2023-04-19T05:24:36;102319.75;;;11.43;72.04
16580;BME280;8402;51.466;6.806;2023-04-19T05:27:08;102310.53;;;11.44;72.42
16580;BME280;8402;51.466;6.806;2023-04-19T05:29:38;102308.06;;;11.42;72.71
16580;BME280;8402;51.466;6.806;2023-04-19T05:32:08;102318.69;;;11.39;71.85
16580;BME280;8402;51.466;6.806;2023-04-19T05:34:38;102319.81;;;11.33;71.95
16580;BME280;8402;51.466;6.806;2023-04-19T05:37:11;102324.19;;;11.28;71.87
16580;BME280;8402;51.466;6.806;2023-04-19T05:39:43;102322.03;;;11.25;71.89
16580;BME280;8402;51.466;6.806;2023-04-19T05:42:13;102320.94;;;11.26;71.61
16580;BME280;8402;51.466;6.806;2023-04-19T05:44:43;102320.41;;;11.29;71.70
16580;BME280;8402;51.466;6.806;2023-04-19T05:47:13;102317.13;;;11.27;71.40
16580;BME280;8402;51.466;6.806;2023-04-19T05:49:43;102315.50;;;11.26;70.98
16580;BME280;8402;51.466;6.806;2023-04-19T05:52:15;102317.69;;;11.24;70.86
16580;BME280;8402;51.466;6.806;2023-04-19T05:54:48;102319.88;;;11.22;70.25
16580;BME280;8402;51.466;6.806;2023-04-19T05:57:18;102319.63;;;11.19;69.87
16580;BME280;8402;51.466;6.806;2023-04-19T05:59:48;102318.22;;;11.21;70.46
16580;BME280;8402;51.466;6.806;2023-04-19T06:02:19;102324.22;;;11.23;70.42
16580;BME280;8402;51.466;6.806;2023-04-19T06:04:49;102317.41;;;11.21;69.38
16580;BME280;8402;51.466;6.806;2023-04-19T06:07:19;102327.47;;;11.20;69.08
16580;BME280;8402;51.466;6.806;2023-04-19T06:10:03;102323.16;;;11.14;67.56
16580;BME280;8402;51.466;6.806;2023-04-19T06:12:33;102321.00;;;11.11;67.24
16580;BME280;8402;51.466;6.806;2023-04-19T06:15:04;102332.97;;;11.10;66.89
16580;BME280;8402;51.466;6.806;2023-04-19T06:17:35;102331.66;;;11.08;66.60
16580;BME280;8402;51.466;6.806;2023-04-19T06:20:07;102327.53;;;11.10;66.44
16580;BME280;8402;51.466;6.806;2023-04-19T06:22:41;102331.88;;;11.11;65.27
16580;BME280;8402;51.466;6.806;2023-04-19T06:25:14;102325.88;;;11.14;65.64
16580;BME280;8402;51.466;6.806;2023-04-19T06:27:44;102331.88;;;11.16;66.17
16580;BME280;8402;51.466;6.806;2023-04-19T06:30:14;102321.25;;;11.20;65.61
16580;BME280;8402;51.466;6.806;2023-04-19T06:32:47;102321.78;;;11.22;64.88
16580;BME280;8402;51.466;6.806;2023-04-19T06:35:17;102322.03;;;11.20;63.89
16580;BME280;8402;51.466;6.806;2023-04-19T06:37:47;102323.66;;;11.21;62.74
16580;BME280;8402;51.466;6.806;2023-04-19T06:40:20;102325.81;;;11.29;63.59
16580;BME280;8402;51.466;6.806;2023-04-19T06:42:51;102321.44;;;11.34;63.21
16580;BME280;8402;51.466;6.806;2023-04-19T06:45:21;102323.06;;;11.35;61.48
16580;BME280;8402;51.466;6.806;2023-04-19T06:47:52;102321.41;;;11.44;63.02
16580;BME280;8402;51.466;6.806;2023-04-19T06:50:22;102319.94;;;11.56;63.62
16580;BME280;8402;51.466;6.806;2023-04-19T06:52:52;102326.69;;;11.64;62.17
16580;BME280;8402;51.466;6.806;2023-04-19T06:55:25;102315.50;;;11.71;61.88
16580;BME280;8402;51.466;6.806;2023-04-19T06:57:55;102315.13;;;11.88;62.43
16580;BME280;8402;51.466;6.806;2023-04-19T07:00:25;102315.34;;;12.25;58.88
16580;BME280;8402;51.466;6.806;2023-04-19T07:02:55;102304.59;;;12.63;60.14
16580;BME280;8402;51.466;6.806;2023-04-19T07:05:26;102302.06;;;12.95;57.80
16580;BME280;8402;51.466;6.806;2023-04-19T07:07:56;102301.66;;;13.26;58.36
16580;BME280;8402;51.466;6.806;2023-04-19T07:10:32;102304.78;;;13.38;54.73
16580;BME280;8402;51.466;6.806;2023-04-19T07:13:02;102307.78;;;13.56;56.19
16580;BME280;8402;51.466;6.806;2023-04-19T07:15:34;102305.34;;;13.73;55.35
16580;BME280;8402;51.466;6.806;2023-04-19T07:18:04;102290.41;;;13.84;54.54
16580;BME280;8402;51.466;6.806;2023-04-19T07:20:36;102297.75;;;14.02;55.63
16580;BME280;8402;51.466;6.806;2023-04-19T07:23:10;102289.31;;;14.18;55.15
16580;BME280;8402;51.466;6.806;2023-04-19T07:25:43;102296.41;;;14.32;52.37
16580;BME280;8402;51.466;6.806;2023-04-19T07:28:13;102289.44;;;14.40;51.78
16580;BME280;8402;51.466;6.806;2023-04-19T07:30:43;102294.84;;;14.59;53.06
16580;BME280;8402;51.466;6.806;2023-04-19T07:33:13;102296.66;;;14.64;51.39
16580;BME280;8402;51.466;6.806;2023-04-19T07:35:43;102284.19;;;14.85;51.36
16580;BME280;8402;51.466;6.806;2023-04-19T07:38:13;102290.84;;;15.06;51.54
16580;BME280;8402;51.466;6.806;2023-04-19T07:40:46;102293.97;;;15.13;49.93
16580;BME280;8402;51.466;6.806;2023-04-19T07:43:16;102279.13;;;15.42;51.76
16580;BME280;8402;51.466;6.806;2023-04-19T07:45:46;102281.13;;;15.50;49.35
16580;BME280;8402;51.466;6.806;2023-04-19T07:48:16;102283.91;;;15.73;50.44
16580;BME280;8402;51.466;6.806;2023-04-19T07:50:47;102279.53;;;15.94;49.83
16580;BME280;8402;51.466;6.806;2023-04-19T07:53:17;102280.50;;;15.98;46.39
16580;BME280;8402;51.466;6.806;2023-04-19T07:55:50;102282.75;;;15.96;46.43
16580;BME280;8402;51.466;6.806;2023-04-19T07:58:19;102286.09;;;16.15;47.69
16580;BME280;8402;51.466;6.806;2023-04-19T08:00:50;102288.16;;;16.10;46.49
16580;BME280;8402;51.466;6.806;2023-04-19T08:03:20;102285.09;;;16.11;45.39
16580;BME280;8402;51.466;6.806;2023-04-19T08:05:50;102285.09;;;16.11;45.04
16580;BME280;8402;51.466;6.806;2023-04-19T08:08:20;102281.16;;;16.26;45.32
16580;BME280;8402;51.466;6.806;2023-04-19T08:10:54;102285.81;;;16.26;43.77
16580;BME280;8402;51.466;6.806;2023-04-19T08:13:27;102287.19;;;16.37;45.32
16580;BME280;8402;51.466;6.806;2023-04-19T08:15:57;102293.25;;;16.65;45.75
16580;BME280;8402;51.466;6.806;2023-04-19T08:18:31;102289.78;;;16.82;45.72
16580;BME280;8402;51.466;6.806;2023-04-19T08:21:02;102291.59;;;16.95;44.39
16580;BME280;8402;51.466;6.806;2023-04-19T08:23:35;102281.56;;;16.82;42.22
16580;BME280;8402;51.466;6.806;2023-04-19T08:26:16;102287.44;;;16.58;40.17
16580;BME280;8402;51.466;6.806;2023-04-19T08:28:46;102282.34;;;16.73;42.51
16580;BME280;8402;51.466;6.806;2023-04-19T08:31:17;102279.34;;;17.01;43.55
16580;BME280;8402;51.466;6.806;2023-04-19T08:33:47;102275.16;;;17.12;42.83
16580;BME280;8402;51.466;6.806;2023-04-19T08:36:17;102280.47;;;17.09;42.38
16580;BME280;8402;51.466;6.806;2023-04-19T08:39:05;102276.44;;;17.06;41.18
16580;BME280;8402;51.466;6.806;2023-04-19T08:41:54;102269.38;;;17.22;42.17
16580;BME280;8402;51.466;6.806;2023-04-19T08:44:36;102269.34;;;17.05;39.75
16580;BME280;8402;51.466;6.806;2023-04-19T08:47:27;102282.09;;;17.10;41.05
16580;BME280;8402;51.466;6.806;2023-04-19T08:50:00;102283.84;;;17.14;41.22
16580;BME280;8402;51.466;6.806;2023-04-19T08:52:51;102286.13;;;17.12;40.65
16580;BME280;8402;51.466;6.806;2023-04-19T08:55:34;102280.16;;;17.19;40.90
16580;BME280;8402;51.466;6.806;2023-04-19T08:58:14;102275.47;;;16.93;38.13
16580;BME280;8402;51.466;6.806;2023-04-19T09:00:58;102290.78;;;16.94;38.99
16580;BME280;8402;51.466;6.806;2023-04-19T09:03:28;102271.44;;;17.08;40.43
16580;BME280;8402;51.466;6.806;2023-04-19T09:06:13;102272.88;;;17.14;40.77
16580;BME280;8402;51.466;6.806;2023-04-19T09:08:43;102273.25;;;17.39;40.20
16580;BME280;8402;51.466;6.806;2023-04-19T09:11:13;102262.25;;;17.56;40.19
16580;BME280;8402;51.466;6.806;2023-04-19T09:13:46;102267.59;;;17.52;39.32
16580;BME280;8402;51.466;6.806;2023-04-19T09:16:26;102269.34;;;17.48;39.79
16580;BME280;8402;51.466;6.806;2023-04-19T09:18:56;102268.34;;;17.70;39.40
16580;BME280;8402;51.466;6.806;2023-04-19T09:21:34;102268.03;;;17.63;38.44
16580;BME280;8402;51.466;6.806;2023-04-19T09:24:05;102260.31;;;17.82;40.73
16580;BME280;8402;51.466;6.806;2023-04-19T09:26:35;102258.09;;;18.14;40.36
16580;BME280;8402;51.466;6.806;2023-04-19T09:29:08;102261.53;;;18.11;36.95
16580;BME280;8402;51.466;6.806;2023-04-19T09:31:55;102252.94;;;18.12;37.07
16580;BME280;8402;51.466;6.806;2023-04-19T09:34:26;102240.81;;;18.22;37.79
16580;BME280;8402;51.466;6.806;2023-04-19T09:36:56;102249.88;;;18.14;37.62
16580;BME280;8402;51.466;6.806;2023-04-19T09:39:40;102247.41;;;18.30;38.97
16580;BME280;8402;51.466;6.806;2023-04-19T09:42:13;102238.34;;;18.29;37.50
16580;BME280;8402;51.466;6.806;2023-04-19T09:45:05;102241.13;;;18.50;38.53
16580;BME280;8402;51.466;6.806;2023-04-19T09:48:01;102232.59;;;18.43;34.66
16580;BME280;8402;51.466;6.806;2023-04-19T09:50:33;102252.88;;;18.68;38.11
16580;BME280;8402;51.466;6.806;2023-04-19T09:53:25;102241.75;;;18.56;35.45
16580;BME280;8402;51.466;6.806;2023-04-19T09:55:55;102239.06;;;18.47;36.07
16580;BME280;8402;51.466;6.806;2023-04-19T09:58:28;102240.44;;;18.32;35.86
16580;BME280;8402;51.466;6.806;2023-04-19T10:01:04;102244.31;;;18.31;35.81
16580;BME280;8402;51.466;6.806;2023-04-19T10:03:43;102243.66;;;18.34;36.21
16580;BME280;8402;51.466;6.806;2023-04-19T10:06:15;102250.09;;;18.38;36.24
16580;BME280;8402;51.466;6.806;2023-04-19T10:08:49;102257.63;;;18.50;35.16
16580;BME280;8402;51.466;6.806;2023-04-19T10:11:19;102246.78;;;18.54;35.93
16580;BME280;8402;51.466;6.806;2023-04-19T10:13:59;102248.13;;;18.48;34.38
16580;BME280;8402;51.466;6.806;2023-04-19T10:16:36;102253.59;;;18.48;34.36
16580;BME280;8402;51.466;6.806;2023-04-19T10:19:08;102259.56;;;18.50;34.57
16580;BME280;8402;51.466;6.806;2023-04-19T10:21:40;102240.13;;;18.25;34.23
16580;BME280;8402;51.466;6.806;2023-04-19T10:24:13;102239.34;;;18.25;35.11
16580;BME280;8402;51.466;6.806;2023-04-19T10:27:06;102241.41;;;18.36;33.91
16580;BME280;8402;51.466;6.806;2023-04-19T10:29:54;102224.22;;;18.39;34.83
16580;BME280;8402;51.466;6.806;2023-04-19T10:32:36;102234.50;;;18.22;34.50
16580;BME280;8402;51.466;6.806;2023-04-19T10:35:07;102231.72;;;18.30;34.21
16580;BME280;8402;51.466;6.806;2023-04-19T10:37:40;102231.00;;;18.42;35.59
16580;BME280;8402;51.466;6.806;2023-04-19T10:40:10;102222.16;;;18.36;34.92
16580;BME280;8402;51.466;6.806;2023-04-19T10:45:40;102222.91;;;18.46;34.78
16580;BME280;8402;51.466;6.806;2023-04-19T10:48:35;102220.63;;;18.18;31.42
16580;BME280;8402;51.466;6.806;2023-04-19T10:51:11;102222.09;;;18.07;33.98
16580;BME280;8402;51.466;6.806;2023-04-19T10:53:50;102209.88;;;17.96;33.14
16580;BME280;8402;51.466;6.806;2023-04-19T10:56:46;102217.34;;;18.25;34.78
16580;BME280;8402;51.466;6.806;2023-04-19T10:59:13;102215.59;;;18.50;34.54
16580;BME280;8402;51.466;6.806;2023-04-19T11:01:54;102193.06;;;18.65;33.44
16580;BME280;8402;51.466;6.806;2023-04-19T11:07:44;102182.91;;;18.86;33.41
16580;BME280;8402;51.466;6.806;2023-04-19T11:10:27;102201.91;;;18.70;33.84
16580;BME280;8402;51.466;6.806;2023-04-19T11:12:57;102187.56;;;18.65;33.56
16580;BME280;8402;51.466;6.806;2023-04-19T11:15:27;102185.91;;;18.64;34.70
16580;BME280;8402;51.466;6.806;2023-04-19T11:17:57;102188.69;;;18.34;31.60
16580;BME280;8402;51.466;6.806;2023-04-19T11:20:41;102198.59;;;18.27;32.68
16580;BME280;8402;51.466;6.806;2023-04-19T11:23:17;102189.78;;;18.42;32.05
16580;BME280;8402;51.466;6.806;2023-04-19T11:25:50;102190.84;;;18.20;31.63
16580;BME280;8402;51.466;6.806;2023-04-19T11:28:20;102189.66;;;18.38;33.45
16580;BME280;8402;51.466;6.806;2023-04-19T11:30:51;102174.91;;;18.64;33.57
16580;BME280;8402;51.466;6.806;2023-04-19T11:33:22;102171.56;;;18.67;31.25
16580;BME280;8402;51.466;6.806;2023-04-19T11:35:54;102161.28;;;18.97;33.22
16580;BME280;8402;51.466;6.806;2023-04-19T11:38:29;102144.75;;;19.18;31.77
16580;BME280;8402;51.466;6.806;2023-04-19T11:40:59;102152.63;;;19.40;32.96
16580;BME280;8402;51.466;6.806;2023-04-19T11:43:35;102154.41;;;19.24;29.72
16580;BME280;8402;51.466;6.806;2023-04-19T11:46:07;102155.75;;;19.18;31.12
16580;BME280;8402;51.466;6.806;2023-04-19T11:48:38;102149.38;;;19.26;32.63
16580;BME280;8402;51.466;6.806;2023-04-19T11:51:09;102141.25;;;19.30;32.24
16580;BME280;8402;51.466;6.806;2023-04-19T11:53:42;102125.09;;;19.40;33.39
16580;BME280;8402;51.466;6.806;2023-04-19T11:56:12;102142.50;;;19.32;31.06
16580;BME280;8402;51.466;6.806;2023-04-19T11:58:45;102129.19;;;19.22;31.30
16580;BME280;8402;51.466;6.806;2023-04-19T12:01:18;102121.53;;;19.07;30.64
16580;BME280;8402;51.466;6.806;2023-04-19T12:03:51;102130.69;;;18.98;31.22
16580;BME280;8402;51.466;6.806;2023-04-19T12:06:24;102123.69;;;19.22;33.18
16580;BME280;8402;51.466;6.806;2023-04-19T12:08:57;102119.41;;;19.12;29.72
16580;BME280;8402;51.466;6.806;2023-04-19T12:11:43;102114.94;;;19.08;29.59
16580;BME280;8402;51.466;6.806;2023-04-19T12:14:17;102113.13;;;19.24;31.34
16580;BME280;8402;51.466;6.806;2023-04-19T12:17:07;102114.44;;;19.06;30.28
16580;BME280;8402;51.466;6.806;2023-04-19T12:19:42;102103.31;;;19.02;29.94
16580;BME280;8402;51.466;6.806;2023-04-19T12:22:14;102098.53;;;19.11;31.71
16580;BME280;8402;51.466;6.806;2023-04-19T12:24:50;102105.97;;;19.11;31.38
16580;BME280;8402;51.466;6.806;2023-04-19T12:27:21;102108.28;;;19.09;31.71
16580;BME280;8402;51.466;6.806;2023-04-19T12:29:51;102094.97;;;19.11;30.33
16580;BME280;8402;51.466;6.806;2023-04-19T12:32:21;102092.47;;;19.18;31.08
16580;BME280;8402;51.466;6.806;2023-04-19T12:34:52;102100.47;;;19.11;31.03
16580;BME280;8402;51.466;6.806;2023-04-19T12:37:22;102083.31;;;19.26;32.07
16580;BME280;8402;51.466;6.806;2023-04-19T12:39:55;102086.22;;;19.42;31.40
16580;BME280;8402;51.466;6.806;2023-04-19T12:42:26;102084.03;;;19.35;31.36
16580;BME280;8402;51.466;6.806;2023-04-19T12:44:56;102080.56;;;19.26;30.91
16580;BME280;8402;51.466;6.806;2023-04-19T12:47:26;102077.38;;;19.24;30.88
16580;BME280;8402;51.466;6.806;2023-04-19T12:49:56;102074.66;;;19.36;31.26
16580;BME280;8402;51.466;6.806;2023-04-19T12:52:27;102084.59;;;19.29;29.35
16580;BME280;8402;51.466;6.806;2023-04-19T12:55:00;102086.06;;;19.26;30.38
16580;BME280;8402;51.466;6.806;2023-04-19T12:57:30;102083.06;;;19.19;30.09
16580;BME280;8402;51.466;6.806;2023-04-19T13:00:00;102074.72;;;19.15;29.71
16580;BME280;8402;51.466;6.806;2023-04-19T13:02:32;102074.53;;;19.00;29.78
16580;BME280;8402;51.466;6.806;2023-04-19T13:05:03;102086.28;;;19.09;31.12
16580;BME280;8402;51.466;6.806;2023-04-19T13:07:33;102071.31;;;19.43;31.73
16580;BME280;8402;51.466;6.806;2023-04-19T13:10:07;102062.63;;;19.53;30.20
16580;BME280;8402;51.466;6.806;2023-04-19T13:12:38;102062.31;;;19.67;30.52
16580;BME280;8402;51.466;6.806;2023-04-19T13:15:09;102057.25;;;19.69;30.33
16580;BME280;8402;51.466;6.806;2023-04-19T13:17:39;102051.06;;;19.84;31.22
16580;BME280;8402;51.466;6.806;2023-04-19T13:20:10;102057.72;;;19.83;29.92
16580;BME280;8402;51.466;6.806;2023-04-19T13:22:42;102049.22;;;19.88;30.88
16580;BME280;8402;51.466;6.806;2023-04-19T13:25:15;102034.28;;;20.01;32.09
16580;BME280;8402;51.466;6.806;2023-04-19T13:27:45;102043.72;;;20.00;30.96
16580;BME280;8402;51.466;6.806;2023-04-19T13:30:15;102047.34;;;20.17;31.09
16580;BME280;8402;51.466;6.806;2023-04-19T13:32:45;102037.94;;;20.05;29.34